createdAt,value
2022-10-21T00:01:05.381Z,75.25
2022-10-21T00:03:40.858Z,87.28
2022-10-21T00:06:10.980Z,74.45
2022-10-21T00:08:40.503Z,73.80
2022-10-21T00:11:10.924Z,74.03
2022-10-21T00:13:40.938Z,84.10
2022-10-21T00:16:11.189Z,75.47
2022-10-21T00:18:40.293Z,89.95
2022-10-21T00:21:09.813Z,75.55
2022-10-21T00:23:38.641Z,98.93
2022-10-21T00:26:07.131Z,112.60
2022-10-21T00:28:35.126Z,92.95
2022-10-21T00:31:06.954Z,95.57
2022-10-21T00:33:34.892Z,103.45
2022-10-21T00:36:03.430Z,118.18
2022-10-21T00:38:31.904Z,144.50
2022-10-21T00:41:00.231Z,113.10
2022-10-21T00:43:29.138Z,109.18
2022-10-21T00:46:00.786Z,126.57
2022-10-21T00:48:35.075Z,105.23
2022-10-21T00:51:07.620Z,97.97
2022-10-21T00:53:37.802Z,100.72
2022-10-21T00:56:15.402Z,94.70
2022-10-21T00:58:46.373Z,85.85
2022-10-21T01:01:18.046Z,97.03
2022-10-21T01:03:50.719Z,94.07
2022-10-21T01:06:23.949Z,97.47
2022-10-21T01:08:54.587Z,95.13
2022-10-21T01:11:24.849Z,86.95
2022-10-21T01:14:09.864Z,94.05
2022-10-21T01:16:47.265Z,99.68
2022-10-21T01:20:05.316Z,113.30
2022-10-21T01:22:52.901Z,99.72
2022-10-21T01:25:54.962Z,87.45
2022-10-21T01:28:32.220Z,94.57
2022-10-21T01:31:05.260Z,90.72
2022-10-21T01:33:41.842Z,90.93
2022-10-21T01:36:19.544Z,103.63
2022-10-21T01:39:02.312Z,99.03
2022-10-21T01:41:36.273Z,92.82
2022-10-21T01:44:13.810Z,97.68
2022-10-21T01:46:46.729Z,100.35
2022-10-21T01:49:20.947Z,89.03
2022-10-21T01:51:48.942Z,90.75
2022-10-21T01:54:23.733Z,84.18
2022-10-21T01:56:51.988Z,81.30
2022-10-21T01:59:21.978Z,80.30
2022-10-21T02:01:52.964Z,80.38
2022-10-21T02:04:22.722Z,78.07
2022-10-21T02:06:50.585Z,79.07
2022-10-21T02:09:18.600Z,80.72
2022-10-21T02:11:50.145Z,88.57
2022-10-21T02:14:23.321Z,130.27
2022-10-21T02:16:53.960Z,94.10
2022-10-21T02:19:22.563Z,93.97
2022-10-21T02:21:54.451Z,72.80
2022-10-21T02:24:29.131Z,74.55
2022-10-21T02:26:57.084Z,82.72
2022-10-21T02:29:30.846Z,85.28
2022-10-21T02:32:10.706Z,77.30
2022-10-21T02:34:52.360Z,83.43
2022-10-21T02:37:30.343Z,75.15
2022-10-21T02:40:06.266Z,81.70
2022-10-21T02:42:39.319Z,81.22
2022-10-21T02:45:10.106Z,88.35
2022-10-21T02:47:40.125Z,89.50
2022-10-21T02:50:09.112Z,88.43
2022-10-21T02:52:36.882Z,104.25
2022-10-21T02:55:05.365Z,91.68
2022-10-21T02:57:33.260Z,98.05
2022-10-21T03:00:01.153Z,94.63
2022-10-21T03:02:28.962Z,90.32
2022-10-21T03:04:58.494Z,99.07
2022-10-21T03:07:26.378Z,85.38
2022-10-21T03:09:54.240Z,91.47
2022-10-21T03:12:22.273Z,86.25
2022-10-21T03:14:50.268Z,84.18
2022-10-21T03:17:21.541Z,95.00
2022-10-21T03:19:52.494Z,85.55
2022-10-21T03:22:21.536Z,82.40
2022-10-21T03:24:49.429Z,79.40
2022-10-21T03:27:17.449Z,83.40
2022-10-21T03:29:45.328Z,103.45
2022-10-21T03:32:13.281Z,94.50
2022-10-21T03:34:41.298Z,98.45
2022-10-21T03:37:08.987Z,102.90
2022-10-21T03:39:38.694Z,90.07
2022-10-21T03:42:06.669Z,90.80
2022-10-21T03:44:34.692Z,94.35
2022-10-21T03:47:02.396Z,88.10
2022-10-21T03:49:30.655Z,90.20
2022-10-21T03:51:58.370Z,89.13
2022-10-21T03:54:26.481Z,85.03
2022-10-21T03:56:55.830Z,126.57
2022-10-21T03:59:23.741Z,91.40
2022-10-21T04:01:51.547Z,134.00
2022-10-21T04:04:19.622Z,128.10
2022-10-21T04:06:47.368Z,144.63
2022-10-21T04:09:15.538Z,77.68
2022-10-21T04:11:43.389Z,86.35
2022-10-21T04:14:15.270Z,87.85
2022-10-21T04:16:43.571Z,88.55
2022-10-21T04:19:17.949Z,95.75
2022-10-21T04:21:46.065Z,99.75
2022-10-21T04:24:14.488Z,94.78
2022-10-21T04:26:42.802Z,93.70
2022-10-21T04:29:12.277Z,97.05
2022-10-21T04:31:40.361Z,107.07
2022-10-21T04:34:08.252Z,98.53
2022-10-21T04:36:36.066Z,95.35
2022-10-21T04:39:04.263Z,104.63
2022-10-21T04:41:31.972Z,95.72
2022-10-21T04:44:00.045Z,136.70
2022-10-21T04:46:29.288Z,119.72
2022-10-21T04:48:57.363Z,120.82
2022-10-21T04:51:25.135Z,100.22
2022-10-21T04:53:53.305Z,110.90
2022-10-21T04:56:21.012Z,78.50
2022-10-21T04:58:48.910Z,77.75
2022-10-21T05:01:16.844Z,78.63
2022-10-21T05:03:46.226Z,75.80
2022-10-21T05:06:13.966Z,74.63
2022-10-21T05:08:42.243Z,85.93
2022-10-21T05:11:09.992Z,82.85
2022-10-21T05:13:37.881Z,107.43
2022-10-21T05:16:06.523Z,125.25
2022-10-21T05:18:34.491Z,112.72
2022-10-21T05:21:03.570Z,121.90
2022-10-21T05:23:31.807Z,130.25
2022-10-21T05:25:59.681Z,122.47
2022-10-21T05:28:27.543Z,120.65
2022-10-21T05:30:55.418Z,115.10
2022-10-21T05:33:23.401Z,110.40
2022-10-21T05:35:58.576Z,96.90
2022-10-21T05:38:28.661Z,106.40
2022-10-21T05:40:56.492Z,107.70
2022-10-21T05:43:24.749Z,100.78
2022-10-21T05:45:52.677Z,107.65
2022-10-21T05:48:20.796Z,101.47
2022-10-21T05:50:48.920Z,95.70
2022-10-21T05:53:17.157Z,105.80
2022-10-21T05:55:46.169Z,104.47
2022-10-21T05:58:14.177Z,94.95
2022-10-21T06:00:42.217Z,94.72
2022-10-21T06:03:10.146Z,121.57
2022-10-21T06:05:37.870Z,118.50
2022-10-21T06:08:06.270Z,131.38
2022-10-21T06:10:33.985Z,94.68
2022-10-21T06:13:03.179Z,76.78
2022-10-21T06:15:31.122Z,73.53
2022-10-21T06:17:59.104Z,79.22
2022-10-21T06:20:26.844Z,72.30
2022-10-21T06:22:54.894Z,88.97
2022-10-21T06:25:23.758Z,83.75
2022-10-21T06:27:52.891Z,76.63
2022-10-21T06:30:23.055Z,75.93
2022-10-21T06:32:51.398Z,76.85
2022-10-21T06:35:19.155Z,76.65
2022-10-21T06:37:47.196Z,72.50
2022-10-21T06:40:15.042Z,74.18
2022-10-21T06:42:42.960Z,75.90
2022-10-21T06:45:11.670Z,84.85
2022-10-21T06:47:41.325Z,82.90
2022-10-21T06:50:09.590Z,83.07
2022-10-21T06:52:37.573Z,82.35
2022-10-21T06:55:06.000Z,78.80
2022-10-21T06:57:34.213Z,77.45
2022-10-21T07:00:02.021Z,81.90
2022-10-21T07:02:30.437Z,85.18
2022-10-21T07:04:59.495Z,82.35
2022-10-21T07:07:27.565Z,95.90
2022-10-21T07:09:57.681Z,87.68
2022-10-21T07:12:26.634Z,83.53
2022-10-21T07:14:55.150Z,92.40
2022-10-21T07:17:23.405Z,94.68
2022-10-21T07:19:51.508Z,86.10
2022-10-21T07:22:20.834Z,77.50
2022-10-21T07:24:48.700Z,76.97
2022-10-21T07:27:16.630Z,80.63
2022-10-21T07:29:44.589Z,78.22
2022-10-21T07:32:12.483Z,84.47
2022-10-21T07:34:40.194Z,66.80
2022-10-21T07:37:08.332Z,70.47
2022-10-21T07:39:37.379Z,69.30
2022-10-21T07:42:05.825Z,63.25
2022-10-21T07:44:33.696Z,68.03
2022-10-21T07:47:01.808Z,71.15
2022-10-21T07:49:29.533Z,63.63
2022-10-21T07:51:57.637Z,62.58
2022-10-21T07:54:25.389Z,61.25
2022-10-21T07:56:54.672Z,65.05
2022-10-21T07:59:23.359Z,71.47
2022-10-21T08:01:52.721Z,70.82
2022-10-21T08:04:24.568Z,68.78
2022-10-21T08:06:53.058Z,68.72
2022-10-21T08:09:20.748Z,51.85
2022-10-21T08:11:49.097Z,56.13
2022-10-21T08:14:18.300Z,60.75
2022-10-21T08:16:46.216Z,57.33
2022-10-21T08:19:20.079Z,55.15
2022-10-21T08:21:48.631Z,57.13
2022-10-21T08:24:16.957Z,57.67
2022-10-21T08:26:45.041Z,61.28
2022-10-21T08:29:12.961Z,48.10
2022-10-21T08:31:42.228Z,57.42
2022-10-21T08:34:10.321Z,56.50
2022-10-21T08:36:39.381Z,56.92
2022-10-21T08:39:07.546Z,53.33
2022-10-21T08:42:05.922Z,52.22
2022-10-21T08:44:40.907Z,58.55
2022-10-21T08:47:17.627Z,61.30
2022-10-21T08:49:54.037Z,53.22
2022-10-21T08:52:24.720Z,55.53
2022-10-21T08:54:57.399Z,58.63
2022-10-21T08:57:25.532Z,47.65
2022-10-21T08:59:53.824Z,55.42
2022-10-21T09:02:42.120Z,55.97
2022-10-21T09:08:04.831Z,52.28
2022-10-21T09:10:43.033Z,52.15
2022-10-21T09:13:17.361Z,49.38
2022-10-21T09:15:54.530Z,47.63
2022-10-21T09:18:35.761Z,47.38
2022-10-21T09:21:15.074Z,48.85
2022-10-21T09:24:01.497Z,56.80
2022-10-21T09:26:41.348Z,54.10
2022-10-21T09:29:21.462Z,60.65
2022-10-21T09:31:54.501Z,49.65
2022-10-21T09:34:38.376Z,43.47
2022-10-21T09:37:09.266Z,39.33
2022-10-21T09:39:43.498Z,35.70
2022-10-21T09:42:35.404Z,45.25
2022-10-21T09:45:01.769Z,39.40
2022-10-21T09:47:30.253Z,47.47
2022-10-21T09:50:07.234Z,42.47
2022-10-21T09:52:38.910Z,43.58
2022-10-21T09:55:12.910Z,39.92
2022-10-21T09:57:49.314Z,40.60
2022-10-21T10:00:17.458Z,40.65
2022-10-21T10:02:47.156Z,42.95
2022-10-21T10:05:36.306Z,34.97
2022-10-21T10:08:28.084Z,37.35
2022-10-21T10:11:04.141Z,31.75
2022-10-21T10:13:32.525Z,39.58
2022-10-21T10:16:23.402Z,24.38
2022-10-21T10:18:53.086Z,24.40
2022-10-21T10:21:23.912Z,24.73
2022-10-21T10:23:54.273Z,20.60
2022-10-21T10:26:27.475Z,21.25
2022-10-21T10:28:59.438Z,19.40
2022-10-21T10:34:04.109Z,18.17
2022-10-21T10:36:36.907Z,24.65
2022-10-21T10:39:08.038Z,24.98
2022-10-21T10:41:40.198Z,22.55
2022-10-21T10:44:19.665Z,24.42
2022-10-21T10:46:55.431Z,28.30
2022-10-21T10:49:24.582Z,24.52
2022-10-21T10:52:07.970Z,28.42
2022-10-21T10:54:36.990Z,20.40
2022-10-21T10:57:11.596Z,22.05
2022-10-21T10:59:43.214Z,25.20
2022-10-21T11:02:35.796Z,23.58
2022-10-21T11:05:24.700Z,27.95
2022-10-21T11:07:56.053Z,34.22
2022-10-21T11:10:35.957Z,37.63
2022-10-21T11:13:06.577Z,32.50
2022-10-21T11:15:50.865Z,40.83
2022-10-21T11:18:25.144Z,48.65
2022-10-21T11:21:02.340Z,47.13
2022-10-21T11:24:02.921Z,48.60
2022-10-21T11:26:37.349Z,42.75
2022-10-21T11:29:17.022Z,43.50
2022-10-21T11:32:10.803Z,43.35
2022-10-21T11:34:51.577Z,43.83
2022-10-21T11:37:28.678Z,39.55
2022-10-21T11:40:04.646Z,36.70
2022-10-21T11:42:37.628Z,39.65
2022-10-21T11:45:31.327Z,43.03
2022-10-21T11:48:05.322Z,31.35
2022-10-21T11:50:40.725Z,32.53
2022-10-21T11:53:26.176Z,39.08
2022-10-21T11:56:07.742Z,29.15
2022-10-21T11:58:51.097Z,37.45
2022-10-21T12:01:29.884Z,36.28
2022-10-21T12:04:24.421Z,40.55
2022-10-21T12:07:26.741Z,41.38
2022-10-21T12:09:59.502Z,50.20
2022-10-21T12:12:32.450Z,52.38
2022-10-21T12:15:02.679Z,47.67
2022-10-21T12:20:07.277Z,43.30
2022-10-21T12:22:36.155Z,49.28
2022-10-21T12:25:18.731Z,49.22
2022-10-21T12:27:54.624Z,45.72
2022-10-21T12:30:27.386Z,47.47
2022-10-21T12:33:13.733Z,52.13
2022-10-21T12:35:49.974Z,48.10
2022-10-21T12:38:24.239Z,40.25
2022-10-21T12:41:13.017Z,47.78
2022-10-21T12:43:52.722Z,41.08
2022-10-21T12:46:25.958Z,46.28
2022-10-21T12:48:54.464Z,46.00
2022-10-21T12:51:25.313Z,48.65
2022-10-21T12:53:57.493Z,41.85
2022-10-21T12:56:29.440Z,54.88
2022-10-21T13:01:40.817Z,42.97
2022-10-21T13:04:45.293Z,51.33
2022-10-21T13:07:38.184Z,56.28
2022-10-21T13:10:34.012Z,48.60
2022-10-21T13:13:36.394Z,57.17
2022-10-21T13:16:30.693Z,45.42
2022-10-21T13:19:00.129Z,57.55
2022-10-21T13:21:36.491Z,49.33
2022-10-21T13:24:15.023Z,53.42
2022-10-21T13:26:49.641Z,46.83
2022-10-21T13:29:34.045Z,54.63
2022-10-21T13:32:29.357Z,48.67
2022-10-21T13:35:04.344Z,48.08
2022-10-21T13:37:36.020Z,47.50
2022-10-21T13:40:07.318Z,45.78
2022-10-21T13:42:39.613Z,42.23
2022-10-21T13:45:22.605Z,47.50
2022-10-21T13:48:02.417Z,35.85
2022-10-21T13:50:33.667Z,44.35
2022-10-21T13:53:06.314Z,39.63
2022-10-21T13:55:34.278Z,43.10
2022-10-21T13:58:02.151Z,33.22
2022-10-21T14:00:32.350Z,36.03
2022-10-21T14:03:04.989Z,39.50
2022-10-21T14:05:37.625Z,49.65
2022-10-21T14:08:14.831Z,31.45
2022-10-21T14:10:46.157Z,33.97
2022-10-21T14:13:16.388Z,29.98
2022-10-21T14:15:46.173Z,37.58
2022-10-21T14:18:28.749Z,28.45
2022-10-21T14:20:59.646Z,34.30
2022-10-21T14:23:29.293Z,39.72
2022-10-21T14:26:05.788Z,29.67
2022-10-21T14:28:34.659Z,31.80
2022-10-21T14:31:03.307Z,36.90
2022-10-21T14:33:32.678Z,32.38
2022-10-21T14:36:10.098Z,37.78
2022-10-21T14:38:44.074Z,29.48
2022-10-21T14:41:18.990Z,31.80
2022-10-21T14:43:49.225Z,29.80
2022-10-21T14:46:18.020Z,34.42
2022-10-21T14:48:51.877Z,30.55
2022-10-21T14:51:22.547Z,36.92
2022-10-21T14:53:55.786Z,33.00
2022-10-21T14:56:30.553Z,36.92
2022-10-21T14:59:00.874Z,38.88
2022-10-21T15:01:28.885Z,39.15
2022-10-21T15:04:00.447Z,33.28
2022-10-21T15:06:30.564Z,36.38
2022-10-21T15:09:07.699Z,30.48
2022-10-21T15:11:39.590Z,37.78
2022-10-21T15:14:30.887Z,38.03
2022-10-21T15:17:01.895Z,30.23
2022-10-21T15:19:43.113Z,34.33
2022-10-21T15:22:23.972Z,32.05
2022-10-21T15:24:53.654Z,33.88
2022-10-21T15:27:35.114Z,29.73
2022-10-21T15:30:07.301Z,41.53
2022-10-21T15:32:35.001Z,53.22
2022-10-21T15:35:13.458Z,44.33
2022-10-21T15:37:41.684Z,56.53
2022-10-21T15:40:11.109Z,81.72
2022-10-21T15:42:38.817Z,59.92
2022-10-21T15:45:14.997Z,60.95
2022-10-21T15:47:42.853Z,70.03
2022-10-21T15:50:15.990Z,73.35
2022-10-21T15:52:44.513Z,108.93
2022-10-21T15:55:12.903Z,99.70
2022-10-21T15:57:41.943Z,94.00
2022-10-21T16:00:17.962Z,87.07
2022-10-21T16:02:46.981Z,85.80
2022-10-21T16:05:17.149Z,84.15
2022-10-21T16:07:45.080Z,78.70
2022-10-21T16:10:21.429Z,70.35
2022-10-21T16:12:49.385Z,59.58
2022-10-21T16:15:19.177Z,78.38
2022-10-21T16:17:49.782Z,89.90
2022-10-21T16:20:21.899Z,90.28
2022-10-21T16:22:49.882Z,102.85
2022-10-21T16:25:18.737Z,107.60
2022-10-21T16:28:02.471Z,124.85
2022-10-21T16:30:35.212Z,105.63
2022-10-21T16:33:03.077Z,127.93
2022-10-21T16:35:32.537Z,200.63
2022-10-21T16:38:00.293Z,257.20
2022-10-21T16:40:31.582Z,203.30
2022-10-21T16:42:59.753Z,151.95
2022-10-21T16:45:29.929Z,104.50
2022-10-21T16:48:00.352Z,119.60
2022-10-21T16:50:36.835Z,86.70
2022-10-21T16:53:05.117Z,101.68
2022-10-21T16:55:33.336Z,98.75
2022-10-21T16:58:01.017Z,85.32
2022-10-21T17:00:28.919Z,96.35
2022-10-21T17:02:58.823Z,90.30
2022-10-21T17:05:27.089Z,64.28
2022-10-21T17:07:57.016Z,45.72
2022-10-21T17:10:25.251Z,84.22
2022-10-21T17:12:58.654Z,86.22
2022-10-21T17:15:27.624Z,88.82
2022-10-21T17:17:55.612Z,96.32
2022-10-21T17:20:23.534Z,67.43
2022-10-21T17:22:51.493Z,55.03
2022-10-21T17:25:22.734Z,64.57
2022-10-21T17:27:50.807Z,80.03
2022-10-21T17:30:19.618Z,96.45
2022-10-21T17:32:47.762Z,83.88
2022-10-21T17:35:19.325Z,105.38
2022-10-21T17:37:47.682Z,83.95
2022-10-21T17:40:17.692Z,109.78
2022-10-21T17:42:47.194Z,98.28
2022-10-21T17:45:17.117Z,98.43
2022-10-21T17:47:45.430Z,118.30
2022-10-21T17:50:14.718Z,101.65
2022-10-21T17:52:43.477Z,90.68
2022-10-21T17:55:11.632Z,132.52
2022-10-21T17:57:39.478Z,142.38
2022-10-21T18:00:10.038Z,148.40
2022-10-21T18:02:38.447Z,108.20
2022-10-21T18:05:08.721Z,106.75
2022-10-21T18:07:36.740Z,172.40
2022-10-21T18:10:06.153Z,195.10
2022-10-21T18:12:34.438Z,192.90
2022-10-21T18:15:02.637Z,145.52
2022-10-21T18:17:33.272Z,113.68
2022-10-21T18:20:01.139Z,123.25
2022-10-21T18:22:29.592Z,90.80
2022-10-21T18:24:57.471Z,95.72
2022-10-21T18:27:25.214Z,95.75
2022-10-21T18:29:53.269Z,95.25
2022-10-21T18:32:21.024Z,100.80
2022-10-21T18:34:50.940Z,133.20
2022-10-21T18:37:20.170Z,82.88
2022-10-21T18:39:48.083Z,76.72
2022-10-21T18:42:16.766Z,85.93
2022-10-21T18:44:45.666Z,79.93
2022-10-21T18:47:13.790Z,90.63
2022-10-21T18:49:41.660Z,93.45
2022-10-21T18:52:13.175Z,85.80
2022-10-21T18:54:41.240Z,92.32
2022-10-21T18:57:12.722Z,86.75
2022-10-21T18:59:40.970Z,94.40
2022-10-21T19:02:11.629Z,88.18
2022-10-21T19:04:42.242Z,95.30
2022-10-21T19:07:11.394Z,105.35
2022-10-21T19:09:39.520Z,111.18
2022-10-21T19:12:13.521Z,96.57
2022-10-21T19:14:42.869Z,105.95
2022-10-21T19:17:11.182Z,94.53
2022-10-21T19:19:39.637Z,84.15
2022-10-21T19:22:07.425Z,86.60
2022-10-21T19:24:37.000Z,82.05
2022-10-21T19:27:04.977Z,82.30
2022-10-21T19:29:32.846Z,85.03
2022-10-21T19:32:00.765Z,90.47
2022-10-21T19:34:28.647Z,84.80
2022-10-21T19:36:56.400Z,80.00
2022-10-21T19:39:24.613Z,83.97
2022-10-21T19:41:53.814Z,83.55
2022-10-21T19:44:22.115Z,80.88
2022-10-21T19:46:50.368Z,81.18
2022-10-21T19:49:18.238Z,75.97
2022-10-21T19:51:45.977Z,81.53
2022-10-21T19:54:15.272Z,80.35
2022-10-21T19:56:43.165Z,76.45
2022-10-21T19:59:12.715Z,70.50
2022-10-21T20:01:40.980Z,77.25
2022-10-21T20:04:08.993Z,70.07
2022-10-21T20:06:38.215Z,66.15
2022-10-21T20:09:08.158Z,72.20
2022-10-21T20:11:36.315Z,64.30
2022-10-21T20:14:04.366Z,66.75
2022-10-21T20:16:35.881Z,67.63
2022-10-21T20:19:05.153Z,74.20
2022-10-21T20:21:34.337Z,66.15
2022-10-21T20:24:02.447Z,57.53
2022-10-21T20:26:30.668Z,53.05
2022-10-21T20:29:00.499Z,59.55
2022-10-21T20:31:28.824Z,64.22
2022-10-21T20:33:58.298Z,60.67
2022-10-21T20:36:28.312Z,59.53
2022-10-21T20:38:58.199Z,59.08
2022-10-21T20:41:28.178Z,49.97
2022-10-21T20:43:56.219Z,46.53
2022-10-21T20:46:25.962Z,51.50
2022-10-21T20:48:55.304Z,47.13
2022-10-21T20:51:26.562Z,51.65
2022-10-21T20:53:55.846Z,50.10
2022-10-21T20:56:26.342Z,50.70
2022-10-21T20:58:54.708Z,55.63
2022-10-21T21:01:25.277Z,53.13
2022-10-21T21:03:54.809Z,51.25
2022-10-21T21:06:24.290Z,50.40
2022-10-21T21:09:22.112Z,53.15
2022-10-21T21:11:41.128Z,43.75
2022-10-21T21:14:09.063Z,50.15
2022-10-21T21:16:37.037Z,43.47
2022-10-21T21:19:07.657Z,47.65
2022-10-21T21:21:37.900Z,41.92
2022-10-21T21:24:06.705Z,46.15
2022-10-21T21:26:36.691Z,39.58
2022-10-21T21:29:07.072Z,38.45
2022-10-21T21:31:36.779Z,41.75
2022-10-21T21:34:05.891Z,43.50
2022-10-21T21:36:33.745Z,47.35
2022-10-21T21:39:03.570Z,48.10
2022-10-21T21:41:31.377Z,46.20
2022-10-21T21:43:59.277Z,48.80
2022-10-21T21:46:27.542Z,49.35
2022-10-21T21:49:00.966Z,48.00
2022-10-21T21:51:31.213Z,47.22
2022-10-21T21:53:59.871Z,40.08
2022-10-21T21:56:29.030Z,41.15
2022-10-21T21:58:58.144Z,45.50
2022-10-21T22:01:28.716Z,40.70
2022-10-21T22:03:58.031Z,41.58
2022-10-21T22:06:28.525Z,38.22
2022-10-21T22:08:56.818Z,34.40
2022-10-21T22:11:26.878Z,35.92
2022-10-21T22:13:56.448Z,38.20
2022-10-21T22:16:27.383Z,44.15
2022-10-21T22:18:55.710Z,46.15
2022-10-21T22:21:23.716Z,49.65
2022-10-21T22:23:52.737Z,56.17
2022-10-21T22:26:23.099Z,64.32
2022-10-21T22:28:51.150Z,75.57
2022-10-21T22:31:25.795Z,69.07
2022-10-21T22:33:57.578Z,74.10
2022-10-21T22:36:25.554Z,65.05
2022-10-21T22:38:53.609Z,52.35
2022-10-21T22:41:21.930Z,63.08
2022-10-21T22:43:49.800Z,54.05
2022-10-21T22:49:07.164Z,55.58
2022-10-21T22:51:35.273Z,58.33
2022-10-21T22:54:03.621Z,48.47
2022-10-21T22:56:32.061Z,53.38
2022-10-21T22:59:00.348Z,52.88
2022-10-21T23:01:30.339Z,54.20
2022-10-21T23:04:02.475Z,59.03
2022-10-21T23:06:31.971Z,53.28
2022-10-21T23:09:01.030Z,59.25
2022-10-21T23:11:29.545Z,63.92
2022-10-21T23:14:03.263Z,56.60
2022-10-21T23:16:35.971Z,52.28
2022-10-21T23:19:04.194Z,49.80
2022-10-21T23:21:33.492Z,56.53
2022-10-21T23:24:01.703Z,56.83
2022-10-21T23:26:29.462Z,55.78
2022-10-21T23:28:57.334Z,58.33
2022-10-21T23:31:25.222Z,56.33
2022-10-21T23:33:53.141Z,59.67
2022-10-21T23:36:20.839Z,59.65
2022-10-21T23:38:50.259Z,55.80
2022-10-21T23:41:17.953Z,61.35
2022-10-21T23:43:45.816Z,50.70
2022-10-21T23:46:13.918Z,56.92
2022-10-21T23:48:41.834Z,61.70
2022-10-21T23:51:09.534Z,59.97
2022-10-21T23:53:37.938Z,56.78
2022-10-21T23:56:07.969Z,61.65
2022-10-21T23:58:36.335Z,62.28
